| time (UTC) | temp C | wind direction | speed KPH | gust KPH | rain 1hr cm | rain 24hr cm | rain mn cm | humidity % | barometer mb |
| 20260503181554 | 21 | 71 | 1.6 | 8.0 | 0.00 | 0.00 | 0.00 | 67 | 1011.5 |
| 20260503180046 | 21 | 342 | 1.6 | 8.0 | 0.00 | 0.00 | 0.00 | 68 | 1011.5 |
| 20260503174548 | 20 | 0 | 1.6 | 9.7 | 0.00 | 0.00 | 0.00 | 69 | 1011.5 |
| 20260503173056 | 20 | 0 | 0.0 | 6.4 | 0.00 | 0.00 | 0.00 | 71 | 1011.8 |
| 20260503171546 | 20 | 307 | 1.6 | 6.4 | 0.00 | 0.00 | 0.00 | 71 | 1011.9 |
| 20260503081611 | 12 | 0 | 0.0 | 0.0 | 0.00 | 0.03 | 0.00 | 95 | 1012.7 |
| 20260503071544 | 13 | 0 | 0.0 | 1.6 | 0.00 | 0.03 | 0.00 | 94 | 1013.0 |
| 20260503054551 | 13 | 0 | 0.0 | 1.6 | 0.00 | 0.03 | 0.03 | 91 | 1012.9 |
| 20260503053045 | 14 | 0 | 0.0 | 0.0 | 0.00 | 0.03 | 0.03 | 89 | 1013.0 |
| 20260503051544 | 14 | 0 | 0.0 | 0.0 | 0.00 | 0.03 | 0.03 | 88 | 1013.1 |
| 20260503050050 | 15 | 124 | 0.0 | 1.6 | 0.00 | 0.03 | 0.03 | 88 | 1013.0 |
| 20260503044550 | 15 | 0 | 0.0 | 3.2 | 0.00 | 0.03 | 0.03 | 86 | 1012.9 |
| 20260503043044 | 15 | 295 | 0.0 | 1.6 | 0.00 | 0.03 | 0.03 | 85 | 1012.6 |
| 20260503041548 | 16 | 0 | 0.0 | 1.6 | 0.00 | 0.03 | 0.03 | 83 | 1012.6 |
| 20260503040049 | 16 | 134 | 0.0 | 1.6 | 0.00 | 0.03 | 0.03 | 83 | 1012.5 |
| 20260503034550 | 16 | 339 | 0.0 | 4.8 | 0.00 | 0.03 | 0.03 | 83 | 1012.1 |
| 20260503033100 | 16 | 0 | 0.0 | 4.8 | 0.00 | 0.03 | 0.03 | 82 | 1012.1 |
| 20260503031556 | 16 | 22 | 0.0 | 1.6 | 0.00 | 0.03 | 0.03 | 80 | 1012.0 |
| 20260503030045 | 17 | 347 | 0.0 | 3.2 | 0.00 | 0.03 | 0.03 | 79 | 1011.9 |
| 20260503024607 | 17 | 0 | 0.0 | 12.9 | 0.00 | 0.03 | 0.03 | 78 | 1011.9 |
| 20260503023042 | 17 | 317 | 3.2 | 8.0 | 0.00 | 0.03 | 0.03 | 77 | 1011.8 |
| 20260503021544 | 18 | 0 | 0.0 | 0.0 | 0.00 | 0.03 | 0.03 | 75 | 1012.3 |
| 20260503020047 | 18 | 0 | 0.0 | 4.8 | 0.00 | 0.03 | 0.03 | 74 | 1012.8 |
| 20260503014544 | 18 | 119 | 11.3 | 19.3 | 0.00 | 0.03 | 0.03 | 72 | 1013.5 |
| 20260503013045 | 19 | 135 | 4.8 | 12.9 | 0.00 | 0.03 | 0.03 | 70 | 1013.2 |
| 20260503011546 | 20 | 131 | 1.6 | 6.4 | 0.00 | 0.03 | 0.03 | 67 | 1012.8 |
| 20260503010042 | 20 | 122 | 1.6 | 6.4 | 0.00 | 0.03 | 0.03 | 67 | 1012.7 |
| 20260503004545 | 20 | 136 | 1.6 | 8.0 | 0.00 | 0.03 | 0.03 | 68 | 1012.6 |
| 20260503003050 | 20 | 200 | 1.6 | 8.0 | 0.00 | 0.03 | 0.03 | 67 | 1012.8 |
| 20260503001603 | 19 | 0 | 0.0 | 1.6 | 0.00 | 0.03 | 0.03 | 68 | 1012.5 |
| 20260503000108 | 19 | 349 | 1.6 | 4.8 | 0.00 | 0.03 | 0.03 | 69 | 1012.2 |
| 20260502234543 | 18 | 311 | 1.6 | 6.4 | 0.00 | 0.03 | 0.03 | 69 | 1012.4 |
| 20260502233101 | 18 | 173 | 1.6 | 4.8 | 0.00 | 0.03 | 0.03 | 70 | 1012.7 |
| 20260502231602 | 17 | 212 | 3.2 | 6.4 | 0.00 | 0.03 | 0.03 | 72 | 1012.9 |
| 20260502230044 | 18 | 230 | 0.0 | 6.4 | 0.00 | 0.03 | 0.03 | 71 | 1013.1 |
| 20260502224549 | 18 | 11 | 0.0 | 3.2 | 0.00 | 0.03 | 0.03 | 73 | 1013.3 |
| 20260502223052 | 17 | 0 | 0.0 | 3.2 | 0.00 | 0.03 | 0.03 | 74 | 1013.6 |
| 20260502221558 | 17 | 293 | 1.6 | 6.4 | 0.00 | 0.03 | 0.03 | 75 | 1013.8 |
| 20260502220046 | 17 | 331 | 0.0 | 6.4 | 0.00 | 0.03 | 0.03 | 73 | 1013.9 |
| 20260502214545 | 17 | 302 | 3.2 | 11.3 | 0.00 | 0.03 | 0.03 | 73 | 1014.0 |
| 20260502213053 | 17 | 302 | 3.2 | 12.9 | 0.00 | 0.03 | 0.03 | 73 | 1014.1 |
| 20260502211547 | 16 | 339 | 4.8 | 17.7 | 0.00 | 0.03 | 0.03 | 71 | 1014.5 |
| 20260502210046 | 16 | 88 | 1.6 | 14.5 | 0.00 | 0.03 | 0.03 | 72 | 1014.3 |
| 20260502204551 | 17 | 337 | 4.8 | 8.0 | 0.00 | 0.03 | 0.03 | 73 | 1014.6 |
| 20260502203056 | 16 | 300 | 1.6 | 9.7 | 0.00 | 0.03 | 0.03 | 75 | 1014.8 |
| 20260502201550 | 15 | 61 | 3.2 | 9.7 | 0.00 | 0.03 | 0.03 | 74 | 1015.3 |
| 20260502200046 | 15 | 329 | 1.6 | 12.9 | 0.00 | 0.03 | 0.03 | 76 | 1015.5 |
| 20260502194546 | 15 | 271 | 1.6 | 9.7 | 0.00 | 0.03 | 0.03 | 77 | 1015.6 |
| 20260502193049 | 14 | 317 | 1.6 | 12.9 | 0.00 | 0.03 | 0.03 | 77 | 1015.7 |
| 20260502191542 | 14 | 265 | 4.8 | 11.3 | 0.00 | 0.03 | 0.03 | 77 | 1015.7 |
| 20260502190049 | 13 | 343 | 3.2 | 16.1 | 0.00 | 0.03 | 0.03 | 77 | 1016.1 |
| 20260502184543 | 13 | 0 | 4.8 | 11.3 | 0.00 | 0.03 | 0.03 | 79 | 1016.2 |
| 20260502183047 | 12 | 313 | 0.0 | 6.4 | 0.00 | 0.03 | 0.03 | 84 | 1016.4 |